sensor_id;sensor_type;location;lat;lon;timestamp;temperature;humidity
12276;DHT22;6200;48.144;11.424;2023-06-19T00:00:03;20.10;83.10
12276;DHT22;6200;48.144;11.424;2023-06-19T00:02:38;20.10;83.20
12276;DHT22;6200;48.144;11.424;2023-06-19T00:05:04;20.10;83.20
12276;DHT22;6200;48.144;11.424;2023-06-19T00:07:29;20.10;83.70
12276;DHT22;6200;48.144;11.424;2023-06-19T00:09:55;20.10;83.40
12276;DHT22;6200;48.144;11.424;2023-06-19T00:12:20;20.10;83.80
12276;DHT22;6200;48.144;11.424;2023-06-19T00:14:46;20.00;83.80
12276;DHT22;6200;48.144;11.424;2023-06-19T00:17:12;20.10;83.60
12276;DHT22;6200;48.144;11.424;2023-06-19T00:19:42;20.00;83.30
12276;DHT22;6200;48.144;11.424;2023-06-19T00:22:07;20.00;83.40
12276;DHT22;6200;48.144;11.424;2023-06-19T00:24:33;20.00;83.60
12276;DHT22;6200;48.144;11.424;2023-06-19T00:26:58;20.00;83.50
12276;DHT22;6200;48.144;11.424;2023-06-19T00:29:31;20.00;83.10
12276;DHT22;6200;48.144;11.424;2023-06-19T00:31:58;20.00;82.50
12276;DHT22;6200;48.144;11.424;2023-06-19T00:34:24;20.10;82.80
12276;DHT22;6200;48.144;11.424;2023-06-19T00:36:50;20.10;81.60
12276;DHT22;6200;48.144;11.424;2023-06-19T00:39:16;20.10;81.40
12276;DHT22;6200;48.144;11.424;2023-06-19T00:41:43;20.10;80.70
12276;DHT22;6200;48.144;11.424;2023-06-19T00:44:09;20.20;82.60
12276;DHT22;6200;48.144;11.424;2023-06-19T00:46:37;20.10;83.20
12276;DHT22;6200;48.144;11.424;2023-06-19T00:49:05;20.10;82.50
12276;DHT22;6200;48.144;11.424;2023-06-19T00:51:31;20.10;83.60
12276;DHT22;6200;48.144;11.424;2023-06-19T00:53:56;20.00;82.00
12276;DHT22;6200;48.144;11.424;2023-06-19T00:56:22;20.10;81.50
12276;DHT22;6200;48.144;11.424;2023-06-19T00:58:47;20.10;82.80
12276;DHT22;6200;48.144;11.424;2023-06-19T01:01:13;20.10;83.30
12276;DHT22;6200;48.144;11.424;2023-06-19T01:03:39;20.10;81.60
12276;DHT22;6200;48.144;11.424;2023-06-19T01:06:14;20.10;81.10
12276;DHT22;6200;48.144;11.424;2023-06-19T01:08:58;20.10;83.30
12276;DHT22;6200;48.144;11.424;2023-06-19T01:11:29;20.00;82.40
12276;DHT22;6200;48.144;11.424;2023-06-19T01:14:09;20.10;82.40
12276;DHT22;6200;48.144;11.424;2023-06-19T01:16:38;20.10;82.40
12276;DHT22;6200;48.144;11.424;2023-06-19T01:19:05;20.10;82.10
12276;DHT22;6200;48.144;11.424;2023-06-19T01:21:34;20.10;82.60
12276;DHT22;6200;48.144;11.424;2023-06-19T01:24:01;20.10;81.80
12276;DHT22;6200;48.144;11.424;2023-06-19T01:26:27;20.00;83.50
12276;DHT22;6200;48.144;11.424;2023-06-19T01:28:53;20.00;83.10
12276;DHT22;6200;48.144;11.424;2023-06-19T01:31:35;20.00;83.40
12276;DHT22;6200;48.144;11.424;2023-06-19T01:34:04;20.10;82.50
12276;DHT22;6200;48.144;11.424;2023-06-19T01:36:31;20.10;82.30
12276;DHT22;6200;48.144;11.424;2023-06-19T01:38:58;20.00;83.10
12276;DHT22;6200;48.144;11.424;2023-06-19T01:41:25;20.10;82.60
12276;DHT22;6200;48.144;11.424;2023-06-19T01:43:52;20.00;83.70
12276;DHT22;6200;48.144;11.424;2023-06-19T01:46:18;20.00;83.90
12276;DHT22;6200;48.144;11.424;2023-06-19T01:48:43;20.00;83.30
12276;DHT22;6200;48.144;11.424;2023-06-19T01:51:09;20.00;83.50
12276;DHT22;6200;48.144;11.424;2023-06-19T01:53:35;20.00;84.20
12276;DHT22;6200;48.144;11.424;2023-06-19T01:56:01;20.00;83.80
12276;DHT22;6200;48.144;11.424;2023-06-19T01:58:26;20.00;83.20
12276;DHT22;6200;48.144;11.424;2023-06-19T02:00:52;20.00;84.10
12276;DHT22;6200;48.144;11.424;2023-06-19T02:03:18;19.90;83.50
12276;DHT22;6200;48.144;11.424;2023-06-19T02:05:43;20.00;84.10
12276;DHT22;6200;48.144;11.424;2023-06-19T02:08:09;19.90;83.40
12276;DHT22;6200;48.144;11.424;2023-06-19T02:10:35;19.90;84.00
12276;DHT22;6200;48.144;11.424;2023-06-19T02:13:00;19.90;83.60
12276;DHT22;6200;48.144;11.424;2023-06-19T02:15:26;19.90;84.20
12276;DHT22;6200;48.144;11.424;2023-06-19T02:17:51;21.80;85.20
12276;DHT22;6200;48.144;11.424;2023-06-19T02:20:20;19.90;85.00
12276;DHT22;6200;48.144;11.424;2023-06-19T02:22:46;19.90;85.40
12276;DHT22;6200;48.144;11.424;2023-06-19T02:25:12;19.90;85.80
12276;DHT22;6200;48.144;11.424;2023-06-19T02:27:37;19.90;85.70
12276;DHT22;6200;48.144;11.424;2023-06-19T02:30:03;20.50;86.60
12276;DHT22;6200;48.144;11.424;2023-06-19T02:32:30;19.80;86.30
12276;DHT22;6200;48.144;11.424;2023-06-19T02:34:55;19.80;86.40
12276;DHT22;6200;48.144;11.424;2023-06-19T02:37:21;19.80;86.60
12276;DHT22;6200;48.144;11.424;2023-06-19T02:39:46;19.80;87.40
12276;DHT22;6200;48.144;11.424;2023-06-19T02:42:12;19.80;87.90
12276;DHT22;6200;48.144;11.424;2023-06-19T02:44:37;20.60;88.90
12276;DHT22;6200;48.144;11.424;2023-06-19T02:47:03;19.80;88.60
12276;DHT22;6200;48.144;11.424;2023-06-19T02:49:29;19.80;89.70
12276;DHT22;6200;48.144;11.424;2023-06-19T02:51:54;19.80;90.10
12276;DHT22;6200;48.144;11.424;2023-06-19T02:54:20;19.80;90.10
12276;DHT22;6200;48.144;11.424;2023-06-19T02:56:45;19.80;90.30
12276;DHT22;6200;48.144;11.424;2023-06-19T02:59:11;19.80;90.50
12276;DHT22;6200;48.144;11.424;2023-06-19T03:01:36;19.80;91.10
12276;DHT22;6200;48.144;11.424;2023-06-19T03:04:02;19.80;91.20
12276;DHT22;6200;48.144;11.424;2023-06-19T03:06:27;19.80;92.20
12276;DHT22;6200;48.144;11.424;2023-06-19T03:08:53;19.80;92.60
12276;DHT22;6200;48.144;11.424;2023-06-19T03:11:18;19.80;93.00
12276;DHT22;6200;48.144;11.424;2023-06-19T03:13:50;19.70;93.60
12276;DHT22;6200;48.144;11.424;2023-06-19T03:16:15;19.60;94.20
12276;DHT22;6200;48.144;11.424;2023-06-19T03:18:42;19.70;94.10
12276;DHT22;6200;48.144;11.424;2023-06-19T03:21:10;19.70;94.00
12276;DHT22;6200;48.144;11.424;2023-06-19T03:23:36;19.70;94.30
12276;DHT22;6200;48.144;11.424;2023-06-19T03:26:01;19.70;94.40
12276;DHT22;6200;48.144;11.424;2023-06-19T03:28:27;19.70;94.50
12276;DHT22;6200;48.144;11.424;2023-06-19T03:30:54;19.70;94.40
12276;DHT22;6200;48.144;11.424;2023-06-19T03:33:19;19.70;94.30
12276;DHT22;6200;48.144;11.424;2023-06-19T03:35:45;19.70;94.40
12276;DHT22;6200;48.144;11.424;2023-06-19T03:38:10;19.60;93.90
12276;DHT22;6200;48.144;11.424;2023-06-19T03:40:36;19.70;94.30
12276;DHT22;6200;48.144;11.424;2023-06-19T03:43:01;19.70;94.50
12276;DHT22;6200;48.144;11.424;2023-06-19T03:45:27;19.60;94.60
12276;DHT22;6200;48.144;11.424;2023-06-19T03:47:53;19.70;94.60
12276;DHT22;6200;48.144;11.424;2023-06-19T03:50:18;19.70;94.90
12276;DHT22;6200;48.144;11.424;2023-06-19T03:52:45;19.70;95.10
12276;DHT22;6200;48.144;11.424;2023-06-19T03:55:10;19.70;94.60
12276;DHT22;6200;48.144;11.424;2023-06-19T03:57:36;19.70;95.30
12276;DHT22;6200;48.144;11.424;2023-06-19T04:00:01;19.70;95.40
12276;DHT22;6200;48.144;11.424;2023-06-19T04:02:27;19.70;95.60
12276;DHT22;6200;48.144;11.424;2023-06-19T04:04:53;19.70;95.70
12276;DHT22;6200;48.144;11.424;2023-06-19T04:07:19;19.70;95.80
12276;DHT22;6200;48.144;11.424;2023-06-19T04:09:44;19.70;95.50
12276;DHT22;6200;48.144;11.424;2023-06-19T04:12:10;19.70;95.90
12276;DHT22;6200;48.144;11.424;2023-06-19T04:14:35;19.70;95.60
12276;DHT22;6200;48.144;11.424;2023-06-19T04:17:01;19.70;95.30
12276;DHT22;6200;48.144;11.424;2023-06-19T04:19:26;19.20;95.30
12276;DHT22;6200;48.144;11.424;2023-06-19T04:21:52;19.70;95.30
12276;DHT22;6200;48.144;11.424;2023-06-19T04:24:20;19.70;94.80
12276;DHT22;6200;48.144;11.424;2023-06-19T04:26:45;19.80;95.00
12276;DHT22;6200;48.144;11.424;2023-06-19T04:29:11;19.70;95.20
12276;DHT22;6200;48.144;11.424;2023-06-19T04:31:43;19.70;95.10
12276;DHT22;6200;48.144;11.424;2023-06-19T04:34:16;19.70;94.80
12276;DHT22;6200;48.144;11.424;2023-06-19T04:36:41;19.70;94.80
12276;DHT22;6200;48.144;11.424;2023-06-19T04:39:07;19.80;94.80
12276;DHT22;6200;48.144;11.424;2023-06-19T04:41:32;19.70;94.90
12276;DHT22;6200;48.144;11.424;2023-06-19T04:43:58;19.80;95.40
12276;DHT22;6200;48.144;11.424;2023-06-19T04:46:23;19.80;95.50
12276;DHT22;6200;48.144;11.424;2023-06-19T04:48:49;19.80;95.40
12276;DHT22;6200;48.144;11.424;2023-06-19T04:51:17;19.80;95.50
12276;DHT22;6200;48.144;11.424;2023-06-19T04:53:49;19.80;95.30
12276;DHT22;6200;48.144;11.424;2023-06-19T04:56:15;19.80;95.10
12276;DHT22;6200;48.144;11.424;2023-06-19T04:58:41;19.80;94.60
12276;DHT22;6200;48.144;11.424;2023-06-19T05:01:15;19.80;94.30
12276;DHT22;6200;48.144;11.424;2023-06-19T05:03:43;19.90;94.10
12276;DHT22;6200;48.144;11.424;2023-06-19T05:06:09;19.90;94.30
12276;DHT22;6200;48.144;11.424;2023-06-19T05:08:34;20.00;94.50
12276;DHT22;6200;48.144;11.424;2023-06-19T05:11:00;20.00;95.10
12276;DHT22;6200;48.144;11.424;2023-06-19T05:13:25;20.00;94.40
12276;DHT22;6200;48.144;11.424;2023-06-19T05:15:51;20.00;94.20
12276;DHT22;6200;48.144;11.424;2023-06-19T05:18:17;20.00;94.10
12276;DHT22;6200;48.144;11.424;2023-06-19T05:20:43;20.10;94.10
12276;DHT22;6200;48.144;11.424;2023-06-19T05:23:09;20.10;94.30
12276;DHT22;6200;48.144;11.424;2023-06-19T05:25:34;20.20;94.60
12276;DHT22;6200;48.144;11.424;2023-06-19T05:28:00;20.20;94.30
12276;DHT22;6200;48.144;11.424;2023-06-19T05:30:26;20.30;93.40
12276;DHT22;6200;48.144;11.424;2023-06-19T05:32:51;20.30;92.90
12276;DHT22;6200;48.144;11.424;2023-06-19T05:35:17;20.40;93.00
12276;DHT22;6200;48.144;11.424;2023-06-19T05:37:42;20.50;92.80
12276;DHT22;6200;48.144;11.424;2023-06-19T05:40:09;20.50;92.30
12276;DHT22;6200;48.144;11.424;2023-06-19T05:42:38;20.60;92.70
12276;DHT22;6200;48.144;11.424;2023-06-19T05:45:04;20.60;92.70
12276;DHT22;6200;48.144;11.424;2023-06-19T05:47:30;20.70;92.80
12276;DHT22;6200;48.144;11.424;2023-06-19T05:49:56;20.80;92.30
12276;DHT22;6200;48.144;11.424;2023-06-19T05:52:22;20.80;92.60
12276;DHT22;6200;48.144;11.424;2023-06-19T05:54:48;20.90;92.70
12276;DHT22;6200;48.144;11.424;2023-06-19T05:57:14;20.90;92.00
12276;DHT22;6200;48.144;11.424;2023-06-19T05:59:41;21.00;92.20
12276;DHT22;6200;48.144;11.424;2023-06-19T06:02:07;21.00;92.20
12276;DHT22;6200;48.144;11.424;2023-06-19T06:04:33;21.10;92.80
12276;DHT22;6200;48.144;11.424;2023-06-19T06:06:59;21.10;92.30
12276;DHT22;6200;48.144;11.424;2023-06-19T06:09:25;21.20;92.40
12276;DHT22;6200;48.144;11.424;2023-06-19T06:11:50;21.20;91.80
12276;DHT22;6200;48.144;11.424;2023-06-19T06:14:16;21.20;92.00
12276;DHT22;6200;48.144;11.424;2023-06-19T06:16:41;21.30;92.30
12276;DHT22;6200;48.144;11.424;2023-06-19T06:19:07;21.40;92.20
12276;DHT22;6200;48.144;11.424;2023-06-19T06:21:32;21.60;91.70
12276;DHT22;6200;48.144;11.424;2023-06-19T06:24:00;21.80;91.10
12276;DHT22;6200;48.144;11.424;2023-06-19T06:26:25;22.30;90.40
12276;DHT22;6200;48.144;11.424;2023-06-19T06:28:53;22.70;90.80
12276;DHT22;6200;48.144;11.424;2023-06-19T06:31:19;23.10;90.10
12276;DHT22;6200;48.144;11.424;2023-06-19T06:33:44;23.70;87.00
12276;DHT22;6200;48.144;11.424;2023-06-19T06:36:10;24.00;84.00
12276;DHT22;6200;48.144;11.424;2023-06-19T06:38:35;24.10;83.30
12276;DHT22;6200;48.144;11.424;2023-06-19T06:41:02;24.20;83.30
12276;DHT22;6200;48.144;11.424;2023-06-19T06:43:27;24.20;82.60
12276;DHT22;6200;48.144;11.424;2023-06-19T06:45:53;24.40;82.50
12276;DHT22;6200;48.144;11.424;2023-06-19T06:48:18;23.50;81.40
12276;DHT22;6200;48.144;11.424;2023-06-19T06:50:44;24.40;82.90
12276;DHT22;6200;48.144;11.424;2023-06-19T06:53:09;24.30;82.20
12276;DHT22;6200;48.144;11.424;2023-06-19T06:55:35;24.20;82.60
12276;DHT22;6200;48.144;11.424;2023-06-19T06:58:01;24.20;82.60
12276;DHT22;6200;48.144;11.424;2023-06-19T07:00:26;24.20;83.60
12276;DHT22;6200;48.144;11.424;2023-06-19T07:02:52;24.20;83.30
12276;DHT22;6200;48.144;11.424;2023-06-19T07:05:18;24.10;82.90
12276;DHT22;6200;48.144;11.424;2023-06-19T07:07:43;24.30;83.50
12276;DHT22;6200;48.144;11.424;2023-06-19T07:10:09;24.40;84.80
12276;DHT22;6200;48.144;11.424;2023-06-19T07:12:35;24.50;84.90
12276;DHT22;6200;48.144;11.424;2023-06-19T07:15:01;24.60;83.20
12276;DHT22;6200;48.144;11.424;2023-06-19T07:17:27;24.70;82.80
12276;DHT22;6200;48.144;11.424;2023-06-19T07:19:52;24.80;83.60
12276;DHT22;6200;48.144;11.424;2023-06-19T07:22:18;25.10;81.70
12276;DHT22;6200;48.144;11.424;2023-06-19T07:24:44;25.70;79.40
12276;DHT22;6200;48.144;11.424;2023-06-19T07:27:09;26.20;78.20
12276;DHT22;6200;48.144;11.424;2023-06-19T07:29:35;26.90;75.80
12276;DHT22;6200;48.144;11.424;2023-06-19T07:32:00;27.50;75.30
12276;DHT22;6200;48.144;11.424;2023-06-19T07:34:27;27.80;72.30
12276;DHT22;6200;48.144;11.424;2023-06-19T07:36:53;27.80;71.50
12276;DHT22;6200;48.144;11.424;2023-06-19T07:39:19;27.50;72.20
12276;DHT22;6200;48.144;11.424;2023-06-19T07:41:45;27.10;73.20
12276;DHT22;6200;48.144;11.424;2023-06-19T07:44:11;26.90;73.70
12276;DHT22;6200;48.144;11.424;2023-06-19T07:46:37;26.70;74.10
12276;DHT22;6200;48.144;11.424;2023-06-19T07:49:02;26.80;73.70
12276;DHT22;6200;48.144;11.424;2023-06-19T07:51:28;27.10;73.70
12276;DHT22;6200;48.144;11.424;2023-06-19T07:53:53;27.50;72.90
12276;DHT22;6200;48.144;11.424;2023-06-19T07:56:19;27.80;71.80
12276;DHT22;6200;48.144;11.424;2023-06-19T07:58:44;28.10;71.70
12276;DHT22;6200;48.144;11.424;2023-06-19T08:01:10;28.30;71.30
12276;DHT22;6200;48.144;11.424;2023-06-19T08:03:35;28.50;71.20
12276;DHT22;6200;48.144;11.424;2023-06-19T08:06:01;28.70;69.90
12276;DHT22;6200;48.144;11.424;2023-06-19T08:08:27;28.80;68.30
12276;DHT22;6200;48.144;11.424;2023-06-19T08:10:52;29.00;69.00
12276;DHT22;6200;48.144;11.424;2023-06-19T08:13:18;29.10;68.50
12276;DHT22;6200;48.144;11.424;2023-06-19T08:15:43;29.10;67.90
12276;DHT22;6200;48.144;11.424;2023-06-19T08:18:10;29.30;67.40
12276;DHT22;6200;48.144;11.424;2023-06-19T08:20:35;29.30;66.40
12276;DHT22;6200;48.144;11.424;2023-06-19T08:23:01;29.40;67.90
12276;DHT22;6200;48.144;11.424;2023-06-19T08:25:27;29.30;68.80
12276;DHT22;6200;48.144;11.424;2023-06-19T08:27:53;29.40;68.30
12276;DHT22;6200;48.144;11.424;2023-06-19T08:30:18;29.50;68.40
12276;DHT22;6200;48.144;11.424;2023-06-19T08:32:45;29.60;67.30
12276;DHT22;6200;48.144;11.424;2023-06-19T08:35:11;29.50;66.10
12276;DHT22;6200;48.144;11.424;2023-06-19T08:37:37;29.50;66.60
12276;DHT22;6200;48.144;11.424;2023-06-19T08:40:03;29.50;66.50
12276;DHT22;6200;48.144;11.424;2023-06-19T08:42:34;29.80;67.10
12276;DHT22;6200;48.144;11.424;2023-06-19T08:44:59;30.00;65.00
12276;DHT22;6200;48.144;11.424;2023-06-19T08:47:30;30.10;63.70
12276;DHT22;6200;48.144;11.424;2023-06-19T08:49:56;30.20;65.50
12276;DHT22;6200;48.144;11.424;2023-06-19T08:52:23;30.20;64.10
12276;DHT22;6200;48.144;11.424;2023-06-19T08:54:48;30.30;64.00
12276;DHT22;6200;48.144;11.424;2023-06-19T08:57:14;30.60;64.10
12276;DHT22;6200;48.144;11.424;2023-06-19T08:59:51;30.40;64.60
12276;DHT22;6200;48.144;11.424;2023-06-19T09:02:16;30.30;63.20
12276;DHT22;6200;48.144;11.424;2023-06-19T09:04:42;30.20;65.30
12276;DHT22;6200;48.144;11.424;2023-06-19T09:07:12;30.10;66.20
12276;DHT22;6200;48.144;11.424;2023-06-19T09:09:44;29.80;66.50
12276;DHT22;6200;48.144;11.424;2023-06-19T09:12:12;29.60;67.50
12276;DHT22;6200;48.144;11.424;2023-06-19T09:14:43;29.40;68.60
12276;DHT22;6200;48.144;11.424;2023-06-19T09:17:17;29.30;68.20
12276;DHT22;6200;48.144;11.424;2023-06-19T09:19:53;28.80;68.20
12276;DHT22;6200;48.144;11.424;2023-06-19T09:22:21;29.20;69.20
12276;DHT22;6200;48.144;11.424;2023-06-19T09:24:48;29.10;69.40
12276;DHT22;6200;48.144;11.424;2023-06-19T09:27:15;28.90;70.90
12276;DHT22;6200;48.144;11.424;2023-06-19T09:29:45;28.80;71.60
12276;DHT22;6200;48.144;11.424;2023-06-19T09:34:46;28.70;68.70
12276;DHT22;6200;48.144;11.424;2023-06-19T09:37:12;28.70;68.60
12276;DHT22;6200;48.144;11.424;2023-06-19T09:39:39;28.80;68.20
12276;DHT22;6200;48.144;11.424;2023-06-19T09:42:07;28.90;67.80
12276;DHT22;6200;48.144;11.424;2023-06-19T09:44:40;29.00;67.30
12276;DHT22;6200;48.144;11.424;2023-06-19T09:47:21;29.20;67.80
12276;DHT22;6200;48.144;11.424;2023-06-19T09:49:49;29.40;66.90
12276;DHT22;6200;48.144;11.424;2023-06-19T09:52:19;29.40;67.30
12276;DHT22;6200;48.144;11.424;2023-06-19T09:54:46;29.70;66.10
12276;DHT22;6200;48.144;11.424;2023-06-19T09:57:12;29.80;66.60
12276;DHT22;6200;48.144;11.424;2023-06-19T09:59:39;29.80;66.50
12276;DHT22;6200;48.144;11.424;2023-06-19T10:02:05;28.70;64.20
12276;DHT22;6200;48.144;11.424;2023-06-19T10:04:42;30.00;65.40
12276;DHT22;6200;48.144;11.424;2023-06-19T10:07:18;30.30;64.40
12276;DHT22;6200;48.144;11.424;2023-06-19T10:12:43;30.40;63.70
12276;DHT22;6200;48.144;11.424;2023-06-19T10:17:35;30.30;62.90
12276;DHT22;6200;48.144;11.424;2023-06-19T10:20:00;30.30;62.20
12276;DHT22;6200;48.144;11.424;2023-06-19T10:22:32;30.20;62.20
12276;DHT22;6200;48.144;11.424;2023-06-19T10:24:58;30.20;63.10
12276;DHT22;6200;48.144;11.424;2023-06-19T10:27:24;30.10;63.70
12276;DHT22;6200;48.144;11.424;2023-06-19T10:29:54;30.00;63.30
12276;DHT22;6200;48.144;11.424;2023-06-19T10:32:20;30.00;62.50
12276;DHT22;6200;48.144;11.424;2023-06-19T10:34:47;29.90;62.90
12276;DHT22;6200;48.144;11.424;2023-06-19T10:37:17;29.80;63.30
12276;DHT22;6200;48.144;11.424;2023-06-19T10:39:43;29.70;63.20
12276;DHT22;6200;48.144;11.424;2023-06-19T10:42:10;29.60;63.40
12276;DHT22;6200;48.144;11.424;2023-06-19T10:44:36;29.60;63.40
12276;DHT22;6200;48.144;11.424;2023-06-19T10:47:04;29.50;63.70
12276;DHT22;6200;48.144;11.424;2023-06-19T10:49:30;29.50;63.90
12276;DHT22;6200;48.144;11.424;2023-06-19T10:51:59;29.40;63.80
12276;DHT22;6200;48.144;11.424;2023-06-19T10:54:25;29.40;65.70
12276;DHT22;6200;48.144;11.424;2023-06-19T10:56:51;29.40;66.00
12276;DHT22;6200;48.144;11.424;2023-06-19T10:59:17;29.40;65.60
12276;DHT22;6200;48.144;11.424;2023-06-19T11:01:48;29.40;65.70
12276;DHT22;6200;48.144;11.424;2023-06-19T11:04:15;29.40;65.10
12276;DHT22;6200;48.144;11.424;2023-06-19T11:06:43;29.50;66.10
12276;DHT22;6200;48.144;11.424;2023-06-19T11:09:09;29.60;65.30
12276;DHT22;6200;48.144;11.424;2023-06-19T11:11:42;29.80;65.40
12276;DHT22;6200;48.144;11.424;2023-06-19T11:14:09;30.00;63.80
12276;DHT22;6200;48.144;11.424;2023-06-19T11:16:37;30.20;64.80
12276;DHT22;6200;48.144;11.424;2023-06-19T11:19:03;30.40;63.40
12276;DHT22;6200;48.144;11.424;2023-06-19T11:21:30;30.60;63.40
12276;DHT22;6200;48.144;11.424;2023-06-19T11:23:57;30.80;62.00
12276;DHT22;6200;48.144;11.424;2023-06-19T11:26:24;31.00;62.50
12276;DHT22;6200;48.144;11.424;2023-06-19T11:28:50;31.20;61.70
12276;DHT22;6200;48.144;11.424;2023-06-19T11:31:16;31.30;60.60
12276;DHT22;6200;48.144;11.424;2023-06-19T11:33:41;31.50;61.00
12276;DHT22;6200;48.144;11.424;2023-06-19T11:36:08;31.70;60.60
12276;DHT22;6200;48.144;11.424;2023-06-19T11:38:36;31.80;59.30
12276;DHT22;6200;48.144;11.424;2023-06-19T11:41:02;31.90;58.70
12276;DHT22;6200;48.144;11.424;2023-06-19T11:43:30;31.90;58.60
12276;DHT22;6200;48.144;11.424;2023-06-19T11:46:03;31.90;58.20
12276;DHT22;6200;48.144;11.424;2023-06-19T11:48:28;32.10;57.70
12276;DHT22;6200;48.144;11.424;2023-06-19T11:50:54;32.10;58.10
12276;DHT22;6200;48.144;11.424;2023-06-19T11:53:24;32.20;58.40
12276;DHT22;6200;48.144;11.424;2023-06-19T11:55:50;32.40;57.50
12276;DHT22;6200;48.144;11.424;2023-06-19T11:58:16;32.70;57.30
12276;DHT22;6200;48.144;11.424;2023-06-19T12:00:43;32.80;56.20
12276;DHT22;6200;48.144;11.424;2023-06-19T12:03:08;33.10;56.80
12276;DHT22;6200;48.144;11.424;2023-06-19T12:05:35;33.30;57.10
12276;DHT22;6200;48.144;11.424;2023-06-19T12:08:00;33.50;54.60
12276;DHT22;6200;48.144;11.424;2023-06-19T12:10:31;33.60;54.00
12276;DHT22;6200;48.144;11.424;2023-06-19T12:12:56;33.60;55.10
12276;DHT22;6200;48.144;11.424;2023-06-19T12:15:22;33.60;56.30
12276;DHT22;6200;48.144;11.424;2023-06-19T12:17:48;33.80;55.10
12276;DHT22;6200;48.144;11.424;2023-06-19T12:20:14;33.90;54.90
12276;DHT22;6200;48.144;11.424;2023-06-19T12:22:40;34.10;55.10
12276;DHT22;6200;48.144;11.424;2023-06-19T12:25:06;34.10;55.40
12276;DHT22;6200;48.144;11.424;2023-06-19T12:27:31;34.30;54.10
12276;DHT22;6200;48.144;11.424;2023-06-19T12:29:57;34.30;53.80
12276;DHT22;6200;48.144;11.424;2023-06-19T12:32:23;34.30;54.60
12276;DHT22;6200;48.144;11.424;2023-06-19T12:34:49;34.30;54.30
12276;DHT22;6200;48.144;11.424;2023-06-19T12:37:15;34.40;54.70
12276;DHT22;6200;48.144;11.424;2023-06-19T12:39:43;34.50;53.10
12276;DHT22;6200;48.144;11.424;2023-06-19T12:42:09;34.60;55.00
12276;DHT22;6200;48.144;11.424;2023-06-19T12:44:37;34.60;53.90
12276;DHT22;6200;48.144;11.424;2023-06-19T12:47:03;34.70;53.60
12276;DHT22;6200;48.144;11.424;2023-06-19T12:49:30;34.80;53.20
12276;DHT22;6200;48.144;11.424;2023-06-19T12:51:55;34.90;53.40
12276;DHT22;6200;48.144;11.424;2023-06-19T12:54:21;35.00;52.90
12276;DHT22;6200;48.144;11.424;2023-06-19T12:56:46;35.00;52.60
12276;DHT22;6200;48.144;11.424;2023-06-19T12:59:12;35.20;50.90
12276;DHT22;6200;48.144;11.424;2023-06-19T13:01:37;35.30;51.30
12276;DHT22;6200;48.144;11.424;2023-06-19T13:04:03;35.30;51.30
12276;DHT22;6200;48.144;11.424;2023-06-19T13:06:29;35.00;52.70
12276;DHT22;6200;48.144;11.424;2023-06-19T13:08:55;34.80;51.30
12276;DHT22;6200;48.144;11.424;2023-06-19T13:11:20;34.40;53.10
12276;DHT22;6200;48.144;11.424;2023-06-19T13:13:46;34.20;52.80
12276;DHT22;6200;48.144;11.424;2023-06-19T13:16:11;34.10;52.30
12276;DHT22;6200;48.144;11.424;2023-06-19T13:18:37;34.00;53.10
12276;DHT22;6200;48.144;11.424;2023-06-19T13:21:02;34.00;53.30
12276;DHT22;6200;48.144;11.424;2023-06-19T13:23:28;33.90;52.10
12276;DHT22;6200;48.144;11.424;2023-06-19T13:25:56;33.60;54.90
12276;DHT22;6200;48.144;11.424;2023-06-19T13:28:22;33.80;53.10
12276;DHT22;6200;48.144;11.424;2023-06-19T13:30:49;34.30;53.20
12276;DHT22;6200;48.144;11.424;2023-06-19T13:33:15;34.50;52.70
12276;DHT22;6200;48.144;11.424;2023-06-19T13:35:41;34.80;51.70
12276;DHT22;6200;48.144;11.424;2023-06-19T13:38:07;35.20;52.40
12276;DHT22;6200;48.144;11.424;2023-06-19T13:40:33;35.40;51.20
12276;DHT22;6200;48.144;11.424;2023-06-19T13:42:58;35.70;50.70
12276;DHT22;6200;48.144;11.424;2023-06-19T13:45:24;36.10;50.70
12276;DHT22;6200;48.144;11.424;2023-06-19T13:47:50;36.00;49.50
12276;DHT22;6200;48.144;11.424;2023-06-19T13:50:16;36.20;50.20
12276;DHT22;6200;48.144;11.424;2023-06-19T13:52:45;36.40;48.90
12276;DHT22;6200;48.144;11.424;2023-06-19T13:55:11;36.40;49.30
12276;DHT22;6200;48.144;11.424;2023-06-19T13:57:37;36.10;50.70
12276;DHT22;6200;48.144;11.424;2023-06-19T14:00:03;36.00;49.60
12276;DHT22;6200;48.144;11.424;2023-06-19T14:02:29;35.90;50.60
12276;DHT22;6200;48.144;11.424;2023-06-19T14:04:55;35.80;50.80
12276;DHT22;6200;48.144;11.424;2023-06-19T14:07:22;35.30;49.90
12276;DHT22;6200;48.144;11.424;2023-06-19T14:09:48;34.90;51.60
12276;DHT22;6200;48.144;11.424;2023-06-19T14:12:14;34.90;52.10
12276;DHT22;6200;48.144;11.424;2023-06-19T14:14:39;34.50;51.20
12276;DHT22;6200;48.144;11.424;2023-06-19T14:17:05;34.50;52.10
12276;DHT22;6200;48.144;11.424;2023-06-19T14:19:31;34.30;52.10
12276;DHT22;6200;48.144;11.424;2023-06-19T14:21:56;34.00;52.40
12276;DHT22;6200;48.144;11.424;2023-06-19T14:24:22;33.90;52.30
12276;DHT22;6200;48.144;11.424;2023-06-19T14:26:50;33.80;53.30
12276;DHT22;6200;48.144;11.424;2023-06-19T14:29:15;33.50;54.00
12276;DHT22;6200;48.144;11.424;2023-06-19T14:31:44;33.20;53.50
12276;DHT22;6200;48.144;11.424;2023-06-19T14:34:09;33.00;53.70
12276;DHT22;6200;48.144;11.424;2023-06-19T14:36:37;33.00;54.60
12276;DHT22;6200;48.144;11.424;2023-06-19T14:39:03;32.90;53.40
12276;DHT22;6200;48.144;11.424;2023-06-19T14:41:29;32.80;55.10
12276;DHT22;6200;48.144;11.424;2023-06-19T14:43:54;32.70;54.50
12276;DHT22;6200;48.144;11.424;2023-06-19T14:46:20;32.60;55.50
12276;DHT22;6200;48.144;11.424;2023-06-19T14:48:45;32.50;55.20
12276;DHT22;6200;48.144;11.424;2023-06-19T14:51:11;32.30;54.00
12276;DHT22;6200;48.144;11.424;2023-06-19T14:53:37;32.30;53.90
12276;DHT22;6200;48.144;11.424;2023-06-19T14:56:03;32.10;54.40
12276;DHT22;6200;48.144;11.424;2023-06-19T14:58:28;32.10;56.60
12276;DHT22;6200;48.144;11.424;2023-06-19T15:00:54;30.60;55.10
12276;DHT22;6200;48.144;11.424;2023-06-19T15:03:20;32.00;55.50
12276;DHT22;6200;48.144;11.424;2023-06-19T15:05:45;32.00;56.20
12276;DHT22;6200;48.144;11.424;2023-06-19T15:08:11;31.90;56.20
12276;DHT22;6200;48.144;11.424;2023-06-19T15:10:37;31.90;55.90
12276;DHT22;6200;48.144;11.424;2023-06-19T15:13:02;31.80;56.40
12276;DHT22;6200;48.144;11.424;2023-06-19T15:15:28;31.90;57.00
12276;DHT22;6200;48.144;11.424;2023-06-19T15:17:54;31.80;56.30
12276;DHT22;6200;48.144;11.424;2023-06-19T15:20:19;31.60;56.30
12276;DHT22;6200;48.144;11.424;2023-06-19T15:22:46;31.60;56.50
12276;DHT22;6200;48.144;11.424;2023-06-19T15:25:12;31.60;56.00
12276;DHT22;6200;48.144;11.424;2023-06-19T15:27:37;31.60;55.40
12276;DHT22;6200;48.144;11.424;2023-06-19T15:30:03;31.60;56.50
12276;DHT22;6200;48.144;11.424;2023-06-19T15:32:29;31.40;57.00